sensor_id;sensor_type;location;lat;lon;timestamp;temperature;humidity
2625;DHT22;1322;53.256;10.386;2023-12-20T00:01:03;8.10;99.90
2625;DHT22;1322;53.256;10.386;2023-12-20T00:03:28;8.10;99.90
2625;DHT22;1322;53.256;10.386;2023-12-20T00:05:54;8.10;99.90
2625;DHT22;1322;53.256;10.386;2023-12-20T00:08:21;8.10;99.90
2625;DHT22;1322;53.256;10.386;2023-12-20T00:10:46;8.00;99.90
2625;DHT22;1322;53.256;10.386;2023-12-20T00:13:12;8.00;99.90
2625;DHT22;1322;53.256;10.386;2023-12-20T00:15:37;8.00;99.90
2625;DHT22;1322;53.256;10.386;2023-12-20T00:18:04;8.00;99.90
2625;DHT22;1322;53.256;10.386;2023-12-20T00:20:29;8.00;99.90
2625;DHT22;1322;53.256;10.386;2023-12-20T00:22:58;7.80;99.90
2625;DHT22;1322;53.256;10.386;2023-12-20T00:25:24;7.90;99.90
2625;DHT22;1322;53.256;10.386;2023-12-20T00:27:50;7.90;99.90
2625;DHT22;1322;53.256;10.386;2023-12-20T00:30:16;7.90;99.90
2625;DHT22;1322;53.256;10.386;2023-12-20T00:32:42;7.80;99.90
2625;DHT22;1322;53.256;10.386;2023-12-20T00:35:16;7.80;99.90
2625;DHT22;1322;53.256;10.386;2023-12-20T00:37:43;7.80;99.90
2625;DHT22;1322;53.256;10.386;2023-12-20T00:40:09;7.80;99.90
2625;DHT22;1322;53.256;10.386;2023-12-20T00:42:35;7.80;99.90
2625;DHT22;1322;53.256;10.386;2023-12-20T00:45:02;7.70;99.90
2625;DHT22;1322;53.256;10.386;2023-12-20T00:47:28;7.70;99.90
2625;DHT22;1322;53.256;10.386;2023-12-20T00:49:53;7.70;99.90
2625;DHT22;1322;53.256;10.386;2023-12-20T00:52:19;7.70;99.90
2625;DHT22;1322;53.256;10.386;2023-12-20T00:54:45;7.70;99.90
2625;DHT22;1322;53.256;10.386;2023-12-20T00:57:11;7.70;99.90
2625;DHT22;1322;53.256;10.386;2023-12-20T00:59:36;7.60;99.90
2625;DHT22;1322;53.256;10.386;2023-12-20T01:02:02;7.50;99.90
2625;DHT22;1322;53.256;10.386;2023-12-20T01:04:28;7.50;99.90
2625;DHT22;1322;53.256;10.386;2023-12-20T01:06:53;7.40;99.90
2625;DHT22;1322;53.256;10.386;2023-12-20T01:09:19;7.30;99.90
2625;DHT22;1322;53.256;10.386;2023-12-20T01:11:45;7.30;99.90
2625;DHT22;1322;53.256;10.386;2023-12-20T01:14:12;7.40;99.90
2625;DHT22;1322;53.256;10.386;2023-12-20T01:16:37;7.40;99.90
2625;DHT22;1322;53.256;10.386;2023-12-20T01:19:03;7.40;99.90
2625;DHT22;1322;53.256;10.386;2023-12-20T01:21:29;7.50;99.90
2625;DHT22;1322;53.256;10.386;2023-12-20T01:23:54;7.50;99.90
2625;DHT22;1322;53.256;10.386;2023-12-20T01:26:20;7.50;99.90
2625;DHT22;1322;53.256;10.386;2023-12-20T01:28:45;7.40;99.90
2625;DHT22;1322;53.256;10.386;2023-12-20T01:31:11;7.40;99.90
2625;DHT22;1322;53.256;10.386;2023-12-20T01:33:36;7.40;99.90
2625;DHT22;1322;53.256;10.386;2023-12-20T01:36:03;7.70;99.90
2625;DHT22;1322;53.256;10.386;2023-12-20T01:38:29;7.30;99.90
2625;DHT22;1322;53.256;10.386;2023-12-20T01:40:54;7.30;99.90
2625;DHT22;1322;53.256;10.386;2023-12-20T01:43:20;7.30;99.90
2625;DHT22;1322;53.256;10.386;2023-12-20T01:45:47;7.20;99.90
2625;DHT22;1322;53.256;10.386;2023-12-20T01:48:12;7.30;99.90
2625;DHT22;1322;53.256;10.386;2023-12-20T01:50:39;7.30;99.90
2625;DHT22;1322;53.256;10.386;2023-12-20T01:53:07;7.30;99.90
2625;DHT22;1322;53.256;10.386;2023-12-20T01:55:35;7.40;99.90
2625;DHT22;1322;53.256;10.386;2023-12-20T01:58:04;7.30;99.90
2625;DHT22;1322;53.256;10.386;2023-12-20T02:00:30;7.30;99.90
2625;DHT22;1322;53.256;10.386;2023-12-20T02:02:58;7.30;99.90
2625;DHT22;1322;53.256;10.386;2023-12-20T02:05:26;7.10;99.90
2625;DHT22;1322;53.256;10.386;2023-12-20T02:07:53;7.10;99.90
2625;DHT22;1322;53.256;10.386;2023-12-20T02:10:18;7.00;99.90
2625;DHT22;1322;53.256;10.386;2023-12-20T02:12:44;7.10;99.90
2625;DHT22;1322;53.256;10.386;2023-12-20T02:15:10;7.10;99.90
2625;DHT22;1322;53.256;10.386;2023-12-20T02:17:36;7.10;99.90
2625;DHT22;1322;53.256;10.386;2023-12-20T02:20:02;7.00;99.90
2625;DHT22;1322;53.256;10.386;2023-12-20T02:22:28;6.80;99.90
2625;DHT22;1322;53.256;10.386;2023-12-20T02:24:53;7.30;99.90
2625;DHT22;1322;53.256;10.386;2023-12-20T02:27:19;6.70;99.90
2625;DHT22;1322;53.256;10.386;2023-12-20T02:29:47;6.70;99.90
2625;DHT22;1322;53.256;10.386;2023-12-20T02:32:13;6.70;99.90
2625;DHT22;1322;53.256;10.386;2023-12-20T02:34:39;6.70;99.90
2625;DHT22;1322;53.256;10.386;2023-12-20T02:37:05;6.80;99.90
2625;DHT22;1322;53.256;10.386;2023-12-20T02:39:30;6.80;99.90
2625;DHT22;1322;53.256;10.386;2023-12-20T02:41:56;6.90;99.90
2625;DHT22;1322;53.256;10.386;2023-12-20T02:44:21;7.00;99.90
2625;DHT22;1322;53.256;10.386;2023-12-20T02:46:47;7.00;99.90
2625;DHT22;1322;53.256;10.386;2023-12-20T02:49:13;7.00;99.90
2625;DHT22;1322;53.256;10.386;2023-12-20T02:51:38;6.80;99.90
2625;DHT22;1322;53.256;10.386;2023-12-20T02:54:04;6.80;99.90
2625;DHT22;1322;53.256;10.386;2023-12-20T02:56:32;6.90;99.90
2625;DHT22;1322;53.256;10.386;2023-12-20T02:58:57;6.80;99.90
2625;DHT22;1322;53.256;10.386;2023-12-20T03:01:23;6.80;99.90
2625;DHT22;1322;53.256;10.386;2023-12-20T03:03:48;6.80;99.90
2625;DHT22;1322;53.256;10.386;2023-12-20T03:06:18;6.90;99.90
2625;DHT22;1322;53.256;10.386;2023-12-20T03:08:44;6.80;99.90
2625;DHT22;1322;53.256;10.386;2023-12-20T03:11:10;6.80;99.90
2625;DHT22;1322;53.256;10.386;2023-12-20T03:13:35;6.80;99.90
2625;DHT22;1322;53.256;10.386;2023-12-20T03:16:01;6.80;99.90
2625;DHT22;1322;53.256;10.386;2023-12-20T03:18:33;6.90;99.90
2625;DHT22;1322;53.256;10.386;2023-12-20T03:20:58;6.90;99.90
2625;DHT22;1322;53.256;10.386;2023-12-20T03:23:24;6.80;99.90
2625;DHT22;1322;53.256;10.386;2023-12-20T03:25:49;6.90;99.90
2625;DHT22;1322;53.256;10.386;2023-12-20T03:28:15;6.80;99.90
2625;DHT22;1322;53.256;10.386;2023-12-20T03:30:41;6.80;99.90
2625;DHT22;1322;53.256;10.386;2023-12-20T03:33:07;6.70;99.90
2625;DHT22;1322;53.256;10.386;2023-12-20T03:35:33;6.60;99.90
2625;DHT22;1322;53.256;10.386;2023-12-20T03:37:58;6.50;99.90
2625;DHT22;1322;53.256;10.386;2023-12-20T03:40:25;6.50;99.90
2625;DHT22;1322;53.256;10.386;2023-12-20T03:42:51;6.50;99.90
2625;DHT22;1322;53.256;10.386;2023-12-20T03:45:16;6.60;99.90
2625;DHT22;1322;53.256;10.386;2023-12-20T03:47:42;6.70;99.90
2625;DHT22;1322;53.256;10.386;2023-12-20T03:50:08;6.70;99.90
2625;DHT22;1322;53.256;10.386;2023-12-20T03:52:33;6.70;99.90
2625;DHT22;1322;53.256;10.386;2023-12-20T03:54:59;6.60;99.90
2625;DHT22;1322;53.256;10.386;2023-12-20T03:57:25;6.60;99.90
2625;DHT22;1322;53.256;10.386;2023-12-20T03:59:50;6.70;99.90
2625;DHT22;1322;53.256;10.386;2023-12-20T04:02:16;6.70;99.90
2625;DHT22;1322;53.256;10.386;2023-12-20T04:04:43;6.80;99.90
2625;DHT22;1322;53.256;10.386;2023-12-20T04:07:09;6.70;99.90
2625;DHT22;1322;53.256;10.386;2023-12-20T04:09:34;6.80;99.90
2625;DHT22;1322;53.256;10.386;2023-12-20T04:12:00;6.90;99.90
2625;DHT22;1322;53.256;10.386;2023-12-20T04:14:25;6.90;99.90
2625;DHT22;1322;53.256;10.386;2023-12-20T04:16:52;6.90;99.90
2625;DHT22;1322;53.256;10.386;2023-12-20T04:19:17;6.90;99.90
2625;DHT22;1322;53.256;10.386;2023-12-20T04:21:43;6.90;99.90
2625;DHT22;1322;53.256;10.386;2023-12-20T04:24:09;6.90;99.90
2625;DHT22;1322;53.256;10.386;2023-12-20T04:26:34;6.90;99.90
2625;DHT22;1322;53.256;10.386;2023-12-20T04:29:00;7.00;99.90
2625;DHT22;1322;53.256;10.386;2023-12-20T04:31:25;7.00;99.90
2625;DHT22;1322;53.256;10.386;2023-12-20T04:33:51;7.00;99.90
2625;DHT22;1322;53.256;10.386;2023-12-20T04:36:16;7.10;99.90
2625;DHT22;1322;53.256;10.386;2023-12-20T04:38:42;7.20;99.90
2625;DHT22;1322;53.256;10.386;2023-12-20T04:41:08;7.00;99.90
2625;DHT22;1322;53.256;10.386;2023-12-20T04:43:33;7.00;99.90
2625;DHT22;1322;53.256;10.386;2023-12-20T04:45:59;7.10;99.90
2625;DHT22;1322;53.256;10.386;2023-12-20T04:48:24;7.00;99.90
2625;DHT22;1322;53.256;10.386;2023-12-20T04:50:50;7.00;99.90
2625;DHT22;1322;53.256;10.386;2023-12-20T04:53:15;6.90;99.90
2625;DHT22;1322;53.256;10.386;2023-12-20T04:55:41;7.00;99.90
2625;DHT22;1322;53.256;10.386;2023-12-20T04:58:07;7.00;99.90
2625;DHT22;1322;53.256;10.386;2023-12-20T05:00:32;7.00;99.90
2625;DHT22;1322;53.256;10.386;2023-12-20T05:02:58;7.00;99.90
2625;DHT22;1322;53.256;10.386;2023-12-20T05:05:23;7.10;99.90
2625;DHT22;1322;53.256;10.386;2023-12-20T05:07:49;7.30;99.90
2625;DHT22;1322;53.256;10.386;2023-12-20T05:10:15;7.00;99.90
2625;DHT22;1322;53.256;10.386;2023-12-20T05:12:40;7.20;99.90
2625;DHT22;1322;53.256;10.386;2023-12-20T05:15:06;7.00;99.90
2625;DHT22;1322;53.256;10.386;2023-12-20T05:17:35;7.00;99.90
2625;DHT22;1322;53.256;10.386;2023-12-20T05:20:01;7.10;99.90
2625;DHT22;1322;53.256;10.386;2023-12-20T05:22:26;7.10;99.90
2625;DHT22;1322;53.256;10.386;2023-12-20T05:24:53;7.10;99.90
2625;DHT22;1322;53.256;10.386;2023-12-20T05:27:19;7.20;99.90
2625;DHT22;1322;53.256;10.386;2023-12-20T05:29:45;7.30;99.90
2625;DHT22;1322;53.256;10.386;2023-12-20T05:32:10;7.30;99.90
2625;DHT22;1322;53.256;10.386;2023-12-20T05:34:36;7.30;99.90
2625;DHT22;1322;53.256;10.386;2023-12-20T05:37:02;7.20;99.90
2625;DHT22;1322;53.256;10.386;2023-12-20T05:39:28;7.20;99.90
2625;DHT22;1322;53.256;10.386;2023-12-20T05:41:54;7.20;99.90
2625;DHT22;1322;53.256;10.386;2023-12-20T05:44:19;7.20;99.90
2625;DHT22;1322;53.256;10.386;2023-12-20T05:46:45;7.20;99.90
2625;DHT22;1322;53.256;10.386;2023-12-20T05:49:10;7.20;99.90
2625;DHT22;1322;53.256;10.386;2023-12-20T05:51:36;7.20;99.90
2625;DHT22;1322;53.256;10.386;2023-12-20T05:54:02;7.20;99.90
2625;DHT22;1322;53.256;10.386;2023-12-20T05:56:27;7.10;99.90
2625;DHT22;1322;53.256;10.386;2023-12-20T05:58:53;7.20;99.90
2625;DHT22;1322;53.256;10.386;2023-12-20T06:01:18;7.20;99.90
2625;DHT22;1322;53.256;10.386;2023-12-20T06:03:44;7.30;99.90
2625;DHT22;1322;53.256;10.386;2023-12-20T06:06:11;7.30;99.90
2625;DHT22;1322;53.256;10.386;2023-12-20T06:08:38;7.30;99.90
2625;DHT22;1322;53.256;10.386;2023-12-20T06:11:04;7.30;99.90
2625;DHT22;1322;53.256;10.386;2023-12-20T06:13:30;7.40;99.90
2625;DHT22;1322;53.256;10.386;2023-12-20T06:15:56;7.30;99.90
2625;DHT22;1322;53.256;10.386;2023-12-20T06:18:22;7.40;99.90
2625;DHT22;1322;53.256;10.386;2023-12-20T06:20:47;7.30;99.90
2625;DHT22;1322;53.256;10.386;2023-12-20T06:23:13;7.30;99.90
2625;DHT22;1322;53.256;10.386;2023-12-20T06:25:38;7.30;99.90
2625;DHT22;1322;53.256;10.386;2023-12-20T06:28:04;7.30;99.90
2625;DHT22;1322;53.256;10.386;2023-12-20T06:30:30;7.30;99.90
2625;DHT22;1322;53.256;10.386;2023-12-20T06:32:58;7.40;99.90
2625;DHT22;1322;53.256;10.386;2023-12-20T06:35:24;7.40;99.90
2625;DHT22;1322;53.256;10.386;2023-12-20T06:37:49;7.30;99.90
2625;DHT22;1322;53.256;10.386;2023-12-20T06:40:15;7.30;99.90
2625;DHT22;1322;53.256;10.386;2023-12-20T06:42:41;7.30;99.90
2625;DHT22;1322;53.256;10.386;2023-12-20T06:45:07;7.40;99.90
2625;DHT22;1322;53.256;10.386;2023-12-20T06:47:33;7.40;99.90
2625;DHT22;1322;53.256;10.386;2023-12-20T06:49:59;7.40;99.90
2625;DHT22;1322;53.256;10.386;2023-12-20T06:52:24;7.40;99.90
2625;DHT22;1322;53.256;10.386;2023-12-20T06:54:50;7.40;99.90
2625;DHT22;1322;53.256;10.386;2023-12-20T06:57:16;7.40;99.90
2625;DHT22;1322;53.256;10.386;2023-12-20T06:59:42;7.40;99.90
2625;DHT22;1322;53.256;10.386;2023-12-20T07:02:08;7.30;99.90
2625;DHT22;1322;53.256;10.386;2023-12-20T07:04:38;7.20;99.90
2625;DHT22;1322;53.256;10.386;2023-12-20T07:07:04;7.30;99.90
2625;DHT22;1322;53.256;10.386;2023-12-20T07:09:30;7.20;99.90
2625;DHT22;1322;53.256;10.386;2023-12-20T07:11:55;7.30;99.90
2625;DHT22;1322;53.256;10.386;2023-12-20T07:14:21;7.30;99.90
2625;DHT22;1322;53.256;10.386;2023-12-20T07:16:47;7.40;99.90
2625;DHT22;1322;53.256;10.386;2023-12-20T07:19:12;7.30;99.90
2625;DHT22;1322;53.256;10.386;2023-12-20T07:21:38;7.40;99.90
2625;DHT22;1322;53.256;10.386;2023-12-20T07:24:04;7.40;99.90
2625;DHT22;1322;53.256;10.386;2023-12-20T07:26:29;7.50;99.90
2625;DHT22;1322;53.256;10.386;2023-12-20T07:28:55;7.50;99.90
2625;DHT22;1322;53.256;10.386;2023-12-20T07:31:21;7.50;99.90
2625;DHT22;1322;53.256;10.386;2023-12-20T07:33:46;7.50;99.90
2625;DHT22;1322;53.256;10.386;2023-12-20T07:36:12;7.60;99.90
2625;DHT22;1322;53.256;10.386;2023-12-20T07:38:38;7.60;99.90
2625;DHT22;1322;53.256;10.386;2023-12-20T07:41:03;7.70;99.90
2625;DHT22;1322;53.256;10.386;2023-12-20T07:43:29;7.60;99.90
2625;DHT22;1322;53.256;10.386;2023-12-20T07:45:55;7.70;99.90
2625;DHT22;1322;53.256;10.386;2023-12-20T07:48:20;7.60;99.90
2625;DHT22;1322;53.256;10.386;2023-12-20T07:50:46;7.60;99.90
2625;DHT22;1322;53.256;10.386;2023-12-20T07:53:12;7.60;99.90
2625;DHT22;1322;53.256;10.386;2023-12-20T07:55:37;7.60;99.90
2625;DHT22;1322;53.256;10.386;2023-12-20T07:58:04;7.60;99.90
2625;DHT22;1322;53.256;10.386;2023-12-20T08:00:30;7.60;99.90
2625;DHT22;1322;53.256;10.386;2023-12-20T08:02:56;7.60;99.90
2625;DHT22;1322;53.256;10.386;2023-12-20T08:05:21;7.50;99.90
2625;DHT22;1322;53.256;10.386;2023-12-20T08:07:47;7.50;99.90
2625;DHT22;1322;53.256;10.386;2023-12-20T08:10:13;7.60;99.90
2625;DHT22;1322;53.256;10.386;2023-12-20T08:12:38;7.60;99.90
2625;DHT22;1322;53.256;10.386;2023-12-20T08:15:05;7.60;99.90
2625;DHT22;1322;53.256;10.386;2023-12-20T08:17:31;7.60;99.90
2625;DHT22;1322;53.256;10.386;2023-12-20T08:19:57;7.60;99.90
2625;DHT22;1322;53.256;10.386;2023-12-20T08:22:22;7.60;99.90
2625;DHT22;1322;53.256;10.386;2023-12-20T08:24:48;7.60;99.90
2625;DHT22;1322;53.256;10.386;2023-12-20T08:27:14;7.70;99.90
2625;DHT22;1322;53.256;10.386;2023-12-20T08:29:39;7.60;99.90
2625;DHT22;1322;53.256;10.386;2023-12-20T08:32:05;7.70;99.90
2625;DHT22;1322;53.256;10.386;2023-12-20T08:34:31;7.70;99.90
2625;DHT22;1322;53.256;10.386;2023-12-20T08:36:56;7.70;99.90
2625;DHT22;1322;53.256;10.386;2023-12-20T08:39:22;7.70;99.90
2625;DHT22;1322;53.256;10.386;2023-12-20T08:41:47;7.60;99.90
2625;DHT22;1322;53.256;10.386;2023-12-20T08:44:13;7.60;99.90
2625;DHT22;1322;53.256;10.386;2023-12-20T08:46:39;7.60;99.90
2625;DHT22;1322;53.256;10.386;2023-12-20T08:49:05;7.50;99.90
2625;DHT22;1322;53.256;10.386;2023-12-20T08:51:30;7.50;99.90
2625;DHT22;1322;53.256;10.386;2023-12-20T08:53:56;7.50;99.90
2625;DHT22;1322;53.256;10.386;2023-12-20T08:56:22;7.60;99.90
2625;DHT22;1322;53.256;10.386;2023-12-20T08:58:47;7.60;99.90
2625;DHT22;1322;53.256;10.386;2023-12-20T09:01:14;7.70;99.90
2625;DHT22;1322;53.256;10.386;2023-12-20T09:03:40;7.70;99.90
2625;DHT22;1322;53.256;10.386;2023-12-20T09:06:06;7.80;99.90
2625;DHT22;1322;53.256;10.386;2023-12-20T09:08:32;7.70;99.90
2625;DHT22;1322;53.256;10.386;2023-12-20T09:10:57;7.80;99.90
2625;DHT22;1322;53.256;10.386;2023-12-20T09:13:23;7.90;99.90
2625;DHT22;1322;53.256;10.386;2023-12-20T09:15:57;7.90;99.90
2625;DHT22;1322;53.256;10.386;2023-12-20T09:18:23;7.80;99.90
2625;DHT22;1322;53.256;10.386;2023-12-20T09:20:49;7.90;99.90
2625;DHT22;1322;53.256;10.386;2023-12-20T09:23:15;7.80;99.90
2625;DHT22;1322;53.256;10.386;2023-12-20T09:25:40;7.70;99.90
2625;DHT22;1322;53.256;10.386;2023-12-20T09:28:06;7.70;99.90
2625;DHT22;1322;53.256;10.386;2023-12-20T09:30:32;7.70;99.90
2625;DHT22;1322;53.256;10.386;2023-12-20T09:32:57;7.60;99.90
2625;DHT22;1322;53.256;10.386;2023-12-20T09:35:23;7.60;99.90
2625;DHT22;1322;53.256;10.386;2023-12-20T09:37:49;7.60;99.90
2625;DHT22;1322;53.256;10.386;2023-12-20T09:40:18;7.70;99.90
2625;DHT22;1322;53.256;10.386;2023-12-20T09:42:58;7.70;99.90
2625;DHT22;1322;53.256;10.386;2023-12-20T09:45:24;7.70;99.90
2625;DHT22;1322;53.256;10.386;2023-12-20T09:47:54;7.70;99.90
2625;DHT22;1322;53.256;10.386;2023-12-20T09:50:22;7.70;99.90
2625;DHT22;1322;53.256;10.386;2023-12-20T09:52:50;7.60;99.90
2625;DHT22;1322;53.256;10.386;2023-12-20T09:55:18;7.70;99.90
2625;DHT22;1322;53.256;10.386;2023-12-20T09:57:45;7.60;99.90
2625;DHT22;1322;53.256;10.386;2023-12-20T10:00:11;7.60;99.90
2625;DHT22;1322;53.256;10.386;2023-12-20T10:02:39;7.60;99.90
2625;DHT22;1322;53.256;10.386;2023-12-20T10:05:08;7.50;99.90
2625;DHT22;1322;53.256;10.386;2023-12-20T10:07:37;7.20;99.90
2625;DHT22;1322;53.256;10.386;2023-12-20T10:10:04;7.10;99.90
2625;DHT22;1322;53.256;10.386;2023-12-20T10:12:30;7.00;99.90
2625;DHT22;1322;53.256;10.386;2023-12-20T10:14:57;7.00;99.90
2625;DHT22;1322;53.256;10.386;2023-12-20T10:17:23;7.00;99.90
2625;DHT22;1322;53.256;10.386;2023-12-20T10:19:49;7.00;99.90
2625;DHT22;1322;53.256;10.386;2023-12-20T10:22:15;7.10;99.90
2625;DHT22;1322;53.256;10.386;2023-12-20T10:24:40;7.00;99.90
2625;DHT22;1322;53.256;10.386;2023-12-20T10:27:08;7.00;99.90
2625;DHT22;1322;53.256;10.386;2023-12-20T10:29:37;7.10;99.90
2625;DHT22;1322;53.256;10.386;2023-12-20T10:32:25;7.10;99.90
2625;DHT22;1322;53.256;10.386;2023-12-20T10:34:52;7.10;99.90
2625;DHT22;1322;53.256;10.386;2023-12-20T10:37:18;7.10;99.90
2625;DHT22;1322;53.256;10.386;2023-12-20T10:39:44;7.20;99.90
2625;DHT22;1322;53.256;10.386;2023-12-20T10:42:14;7.20;99.90
2625;DHT22;1322;53.256;10.386;2023-12-20T10:44:41;7.20;99.90
2625;DHT22;1322;53.256;10.386;2023-12-20T10:47:09;7.30;99.90
2625;DHT22;1322;53.256;10.386;2023-12-20T10:49:37;7.40;99.90
2625;DHT22;1322;53.256;10.386;2023-12-20T10:52:05;7.30;99.90
2625;DHT22;1322;53.256;10.386;2023-12-20T10:54:32;7.30;99.90
2625;DHT22;1322;53.256;10.386;2023-12-20T10:56:58;7.20;99.90
2625;DHT22;1322;53.256;10.386;2023-12-20T10:59:24;7.30;99.90
2625;DHT22;1322;53.256;10.386;2023-12-20T11:01:54;7.40;99.90
2625;DHT22;1322;53.256;10.386;2023-12-20T11:04:31;7.50;99.90
2625;DHT22;1322;53.256;10.386;2023-12-20T11:07:08;7.40;99.90
2625;DHT22;1322;53.256;10.386;2023-12-20T11:09:43;7.30;99.90
2625;DHT22;1322;53.256;10.386;2023-12-20T11:12:18;7.30;99.90
2625;DHT22;1322;53.256;10.386;2023-12-20T11:14:48;7.20;99.90
2625;DHT22;1322;53.256;10.386;2023-12-20T11:17:14;7.10;99.90
2625;DHT22;1322;53.256;10.386;2023-12-20T11:22:24;7.20;99.90
2625;DHT22;1322;53.256;10.386;2023-12-20T11:24:51;7.30;99.90
2625;DHT22;1322;53.256;10.386;2023-12-20T11:27:19;7.30;99.90
2625;DHT22;1322;53.256;10.386;2023-12-20T11:29:52;7.30;99.90
2625;DHT22;1322;53.256;10.386;2023-12-20T11:37:38;7.30;99.90
2625;DHT22;1322;53.256;10.386;2023-12-20T11:40:11;7.30;99.90
2625;DHT22;1322;53.256;10.386;2023-12-20T11:42:48;7.40;99.90
2625;DHT22;1322;53.256;10.386;2023-12-20T11:45:15;7.40;99.90
2625;DHT22;1322;53.256;10.386;2023-12-20T11:47:43;7.50;99.90
2625;DHT22;1322;53.256;10.386;2023-12-20T11:50:10;7.50;99.90
2625;DHT22;1322;53.256;10.386;2023-12-20T11:52:36;7.50;99.90
2625;DHT22;1322;53.256;10.386;2023-12-20T11:55:02;7.20;99.90
2625;DHT22;1322;53.256;10.386;2023-12-20T11:57:29;7.20;99.90
2625;DHT22;1322;53.256;10.386;2023-12-20T11:59:55;7.20;99.90
2625;DHT22;1322;53.256;10.386;2023-12-20T12:02:21;7.20;99.90
2625;DHT22;1322;53.256;10.386;2023-12-20T12:04:48;7.30;99.90
2625;DHT22;1322;53.256;10.386;2023-12-20T12:07:14;7.40;99.90
2625;DHT22;1322;53.256;10.386;2023-12-20T12:09:40;7.50;99.90
2625;DHT22;1322;53.256;10.386;2023-12-20T12:12:06;7.50;99.90
2625;DHT22;1322;53.256;10.386;2023-12-20T12:14:32;7.60;99.90
2625;DHT22;1322;53.256;10.386;2023-12-20T12:16:57;7.70;99.90
2625;DHT22;1322;53.256;10.386;2023-12-20T12:19:24;7.70;99.90
2625;DHT22;1322;53.256;10.386;2023-12-20T12:21:51;7.80;99.90
2625;DHT22;1322;53.256;10.386;2023-12-20T12:24:20;8.00;99.90
2625;DHT22;1322;53.256;10.386;2023-12-20T12:26:51;7.90;99.90
2625;DHT22;1322;53.256;10.386;2023-12-20T12:29:17;7.90;99.90
2625;DHT22;1322;53.256;10.386;2023-12-20T12:31:43;7.80;99.90
2625;DHT22;1322;53.256;10.386;2023-12-20T12:34:08;7.70;99.90
2625;DHT22;1322;53.256;10.386;2023-12-20T12:36:34;7.80;99.90
2625;DHT22;1322;53.256;10.386;2023-12-20T12:39:02;7.90;99.90
2625;DHT22;1322;53.256;10.386;2023-12-20T12:41:30;7.90;99.90
2625;DHT22;1322;53.256;10.386;2023-12-20T12:43:55;7.80;99.90
2625;DHT22;1322;53.256;10.386;2023-12-20T12:46:21;7.80;99.90
2625;DHT22;1322;53.256;10.386;2023-12-20T12:48:47;7.60;99.90
2625;DHT22;1322;53.256;10.386;2023-12-20T12:51:13;7.70;99.90
2625;DHT22;1322;53.256;10.386;2023-12-20T12:53:39;7.70;99.90
2625;DHT22;1322;53.256;10.386;2023-12-20T12:56:05;7.60;99.90
2625;DHT22;1322;53.256;10.386;2023-12-20T12:58:31;7.60;99.90
2625;DHT22;1322;53.256;10.386;2023-12-20T13:00:57;7.50;99.90
2625;DHT22;1322;53.256;10.386;2023-12-20T13:03:23;7.30;99.90
2625;DHT22;1322;53.256;10.386;2023-12-20T13:05:49;7.30;99.90
2625;DHT22;1322;53.256;10.386;2023-12-20T13:08:15;7.10;99.90
2625;DHT22;1322;53.256;10.386;2023-12-20T13:10:41;7.10;99.90
2625;DHT22;1322;53.256;10.386;2023-12-20T13:13:06;7.00;99.90
2625;DHT22;1322;53.256;10.386;2023-12-20T13:15:32;7.00;99.90
2625;DHT22;1322;53.256;10.386;2023-12-20T13:17:57;6.90;99.90
2625;DHT22;1322;53.256;10.386;2023-12-20T13:20:23;7.00;99.90
2625;DHT22;1322;53.256;10.386;2023-12-20T13:22:51;6.90;99.90
2625;DHT22;1322;53.256;10.386;2023-12-20T13:25:17;7.00;99.90
2625;DHT22;1322;53.256;10.386;2023-12-20T13:27:42;7.00;99.90
2625;DHT22;1322;53.256;10.386;2023-12-20T13:30:09;6.90;99.90
2625;DHT22;1322;53.256;10.386;2023-12-20T13:32:34;6.80;99.90
2625;DHT22;1322;53.256;10.386;2023-12-20T13:35:00;6.90;99.90
2625;DHT22;1322;53.256;10.386;2023-12-20T13:37:26;6.80;99.90
2625;DHT22;1322;53.256;10.386;2023-12-20T13:39:52;6.90;99.90
2625;DHT22;1322;53.256;10.386;2023-12-20T13:42:17;6.80;99.90
2625;DHT22;1322;53.256;10.386;2023-12-20T13:44:43;6.80;99.90
2625;DHT22;1322;53.256;10.386;2023-12-20T13:47:09;6.80;99.90
2625;DHT22;1322;53.256;10.386;2023-12-20T13:49:35;6.90;99.90
2625;DHT22;1322;53.256;10.386;2023-12-20T13:52:00;6.90;99.90
2625;DHT22;1322;53.256;10.386;2023-12-20T13:54:26;7.00;99.90
2625;DHT22;1322;53.256;10.386;2023-12-20T13:56:51;7.00;99.90
2625;DHT22;1322;53.256;10.386;2023-12-20T13:59:17;6.90;99.90
2625;DHT22;1322;53.256;10.386;2023-12-20T14:01:45;6.80;99.90
2625;DHT22;1322;53.256;10.386;2023-12-20T14:04:11;6.90;99.90
2625;DHT22;1322;53.256;10.386;2023-12-20T14:06:37;6.90;99.90
2625;DHT22;1322;53.256;10.386;2023-12-20T14:09:02;6.80;99.90
2625;DHT22;1322;53.256;10.386;2023-12-20T14:11:28;6.80;99.90
2625;DHT22;1322;53.256;10.386;2023-12-20T14:13:54;6.80;99.90
2625;DHT22;1322;53.256;10.386;2023-12-20T14:16:26;6.80;99.90
2625;DHT22;1322;53.256;10.386;2023-12-20T14:18:52;6.90;99.90
2625;DHT22;1322;53.256;10.386;2023-12-20T14:21:17;6.90;99.90
2625;DHT22;1322;53.256;10.386;2023-12-20T14:23:45;7.00;99.90
2625;DHT22;1322;53.256;10.386;2023-12-20T14:26:11;7.00;99.90
2625;DHT22;1322;53.256;10.386;2023-12-20T14:28:43;7.00;99.90
2625;DHT22;1322;53.256;10.386;2023-12-20T14:31:09;7.00;99.90
2625;DHT22;1322;53.256;10.386;2023-12-20T14:33:36;7.00;99.90
2625;DHT22;1322;53.256;10.386;2023-12-20T14:36:04;7.00;99.90
2625;DHT22;1322;53.256;10.386;2023-12-20T14:38:31;6.90;99.90
2625;DHT22;1322;53.256;10.386;2023-12-20T14:40:56;6.80;99.90
2625;DHT22;1322;53.256;10.386;2023-12-20T14:43:23;7.00;99.90
2625;DHT22;1322;53.256;10.386;2023-12-20T14:45:48;7.00;99.90
2625;DHT22;1322;53.256;10.386;2023-12-20T14:48:14;6.80;99.90
2625;DHT22;1322;53.256;10.386;2023-12-20T14:50:41;6.80;99.90
2625;DHT22;1322;53.256;10.386;2023-12-20T14:53:08;6.80;99.90
2625;DHT22;1322;53.256;10.386;2023-12-20T14:55:33;6.80;99.90
2625;DHT22;1322;53.256;10.386;2023-12-20T14:57:59;6.80;99.90
2625;DHT22;1322;53.256;10.386;2023-12-20T15:00:25;6.80;99.90
2625;DHT22;1322;53.256;10.386;2023-12-20T15:02:50;6.80;99.90
2625;DHT22;1322;53.256;10.386;2023-12-20T15:05:16;6.70;99.90
2625;DHT22;1322;53.256;10.386;2023-12-20T15:07:43;6.70;99.90
2625;DHT22;1322;53.256;10.386;2023-12-20T15:10:09;6.60;99.90
2625;DHT22;1322;53.256;10.386;2023-12-20T15:12:35;6.60;99.90
2625;DHT22;1322;53.256;10.386;2023-12-20T15:15:00;6.60;99.90
2625;DHT22;1322;53.256;10.386;2023-12-20T15:17:26;6.60;99.90
2625;DHT22;1322;53.256;10.386;2023-12-20T15:19:52;6.60;99.90
2625;DHT22;1322;53.256;10.386;2023-12-20T15:22:18;6.60;99.90
2625;DHT22;1322;53.256;10.386;2023-12-20T15:24:43;6.70;99.90
2625;DHT22;1322;53.256;10.386;2023-12-20T15:27:11;6.70;99.90
2625;DHT22;1322;53.256;10.386;2023-12-20T15:29:37;6.60;99.90
2625;DHT22;1322;53.256;10.386;2023-12-20T15:32:03;6.70;99.90
2625;DHT22;1322;53.256;10.386;2023-12-20T15:34:31;6.70;99.90
2625;DHT22;1322;53.256;10.386;2023-12-20T15:36:57;6.70;99.90
2625;DHT22;1322;53.256;10.386;2023-12-20T15:39:23;6.80;99.90
2625;DHT22;1322;53.256;10.386;2023-12-20T15:41:48;6.90;99.90
2625;DHT22;1322;53.256;10.386;2023-12-20T15:44:15;7.00;99.90
2625;DHT22;1322;53.256;10.386;2023-12-20T15:46:41;7.00;99.90
2625;DHT22;1322;53.256;10.386;2023-12-20T15:49:07;6.90;99.90
2625;DHT22;1322;53.256;10.386;2023-12-20T15:51:33;7.00;99.90
2625;DHT22;1322;53.256;10.386;2023-12-20T15:53:59;7.00;99.90
2625;DHT22;1322;53.256;10.386;2023-12-20T15:56:31;7.00;99.90
2625;DHT22;1322;53.256;10.386;2023-12-20T15:58:57;6.90;99.90
2625;DHT22;1322;53.256;10.386;2023-12-20T16:01:24;6.80;99.90
2625;DHT22;1322;53.256;10.386;2023-12-20T16:03:49;6.70;99.90